sensor_id;sensor_type;location;lat;lon;timestamp;P1;durP1;ratioP1;P2;durP2;ratioP2
71869;SDS011;59739;47.696;11.746;2023-05-21T00:00:28;7.93;;;5.93;;
71869;SDS011;59739;47.696;11.746;2023-05-21T00:02:54;8.15;;;6.40;;
71869;SDS011;59739;47.696;11.746;2023-05-21T00:05:22;9.57;;;6.40;;
71869;SDS011;59739;47.696;11.746;2023-05-21T00:07:51;9.32;;;6.45;;
71869;SDS011;59739;47.696;11.746;2023-05-21T00:10:18;7.03;;;5.65;;
71869;SDS011;59739;47.696;11.746;2023-05-21T00:12:45;12.15;;;6.68;;
71869;SDS011;59739;47.696;11.746;2023-05-21T00:15:11;8.75;;;6.18;;
71869;SDS011;59739;47.696;11.746;2023-05-21T00:17:37;9.05;;;6.50;;
71869;SDS011;59739;47.696;11.746;2023-05-21T00:20:04;8.77;;;5.97;;
71869;SDS011;59739;47.696;11.746;2023-05-21T00:22:31;7.45;;;6.00;;
71869;SDS011;59739;47.696;11.746;2023-05-21T00:24:58;8.88;;;6.50;;
71869;SDS011;59739;47.696;11.746;2023-05-21T00:27:24;9.95;;;6.35;;
71869;SDS011;59739;47.696;11.746;2023-05-21T00:29:50;8.88;;;6.20;;
71869;SDS011;59739;47.696;11.746;2023-05-21T00:32:16;12.50;;;6.50;;
71869;SDS011;59739;47.696;11.746;2023-05-21T00:34:43;9.35;;;6.13;;
71869;SDS011;59739;47.696;11.746;2023-05-21T00:37:09;7.20;;;6.05;;
71869;SDS011;59739;47.696;11.746;2023-05-21T00:39:35;8.65;;;5.95;;
71869;SDS011;59739;47.696;11.746;2023-05-21T00:42:01;7.97;;;5.97;;
71869;SDS011;59739;47.696;11.746;2023-05-21T00:44:28;8.85;;;6.00;;
71869;SDS011;59739;47.696;11.746;2023-05-21T00:46:59;7.90;;;6.22;;
71869;SDS011;59739;47.696;11.746;2023-05-21T00:49:26;8.35;;;6.13;;
71869;SDS011;59739;47.696;11.746;2023-05-21T00:51:53;9.55;;;6.00;;
71869;SDS011;59739;47.696;11.746;2023-05-21T00:54:19;9.40;;;6.72;;
71869;SDS011;59739;47.696;11.746;2023-05-21T00:56:46;6.63;;;5.50;;
71869;SDS011;59739;47.696;11.746;2023-05-21T00:59:12;8.13;;;6.05;;
71869;SDS011;59739;47.696;11.746;2023-05-21T01:01:40;8.48;;;5.90;;
71869;SDS011;59739;47.696;11.746;2023-05-21T01:04:09;8.68;;;6.40;;
71869;SDS011;59739;47.696;11.746;2023-05-21T01:06:36;8.43;;;6.07;;
71869;SDS011;59739;47.696;11.746;2023-05-21T01:09:03;7.60;;;5.63;;
71869;SDS011;59739;47.696;11.746;2023-05-21T01:11:38;7.07;;;5.80;;
71869;SDS011;59739;47.696;11.746;2023-05-21T01:14:07;9.98;;;6.40;;
71869;SDS011;59739;47.696;11.746;2023-05-21T01:16:37;7.15;;;5.95;;
71869;SDS011;59739;47.696;11.746;2023-05-21T01:19:05;10.15;;;5.70;;
71869;SDS011;59739;47.696;11.746;2023-05-21T01:21:35;8.90;;;6.32;;
71869;SDS011;59739;47.696;11.746;2023-05-21T01:24:05;9.40;;;6.18;;
71869;SDS011;59739;47.696;11.746;2023-05-21T01:26:32;7.75;;;6.63;;
71869;SDS011;59739;47.696;11.746;2023-05-21T01:29:03;8.90;;;6.60;;
71869;SDS011;59739;47.696;11.746;2023-05-21T01:34:59;9.63;;;6.20;;
71869;SDS011;59739;47.696;11.746;2023-05-21T01:37:34;8.63;;;6.55;;
71869;SDS011;59739;47.696;11.746;2023-05-21T01:42:51;9.60;;;6.22;;
71869;SDS011;59739;47.696;11.746;2023-05-21T01:45:17;7.18;;;5.55;;
71869;SDS011;59739;47.696;11.746;2023-05-21T01:47:46;7.53;;;5.80;;
71869;SDS011;59739;47.696;11.746;2023-05-21T01:50:14;9.77;;;5.97;;
71869;SDS011;59739;47.696;11.746;2023-05-21T01:52:47;7.82;;;5.85;;
71869;SDS011;59739;47.696;11.746;2023-05-21T01:55:17;10.48;;;6.45;;
71869;SDS011;59739;47.696;11.746;2023-05-21T01:57:52;9.32;;;6.13;;
71869;SDS011;59739;47.696;11.746;2023-05-21T02:00:20;9.40;;;5.95;;
71869;SDS011;59739;47.696;11.746;2023-05-21T02:02:47;7.38;;;5.88;;
71869;SDS011;59739;47.696;11.746;2023-05-21T02:05:14;6.90;;;5.60;;
71869;SDS011;59739;47.696;11.746;2023-05-21T02:07:40;6.82;;;5.60;;
71869;SDS011;59739;47.696;11.746;2023-05-21T02:10:08;10.10;;;6.20;;
71869;SDS011;59739;47.696;11.746;2023-05-21T02:12:35;6.80;;;5.28;;
71869;SDS011;59739;47.696;11.746;2023-05-21T02:15:01;9.60;;;6.10;;
71869;SDS011;59739;47.696;11.746;2023-05-21T02:17:27;8.38;;;5.65;;
71869;SDS011;59739;47.696;11.746;2023-05-21T02:20:01;7.13;;;6.03;;
71869;SDS011;59739;47.696;11.746;2023-05-21T02:22:39;8.43;;;5.60;;
71869;SDS011;59739;47.696;11.746;2023-05-21T02:25:10;9.73;;;5.45;;
71869;SDS011;59739;47.696;11.746;2023-05-21T02:27:39;9.07;;;6.22;;
71869;SDS011;59739;47.696;11.746;2023-05-21T02:30:07;10.18;;;6.18;;
71869;SDS011;59739;47.696;11.746;2023-05-21T02:32:35;7.22;;;5.68;;
71869;SDS011;59739;47.696;11.746;2023-05-21T02:35:02;8.93;;;5.93;;
71869;SDS011;59739;47.696;11.746;2023-05-21T02:37:29;7.68;;;6.13;;
71869;SDS011;59739;47.696;11.746;2023-05-21T02:39:59;7.30;;;5.38;;
71869;SDS011;59739;47.696;11.746;2023-05-21T02:42:28;8.45;;;6.00;;
71869;SDS011;59739;47.696;11.746;2023-05-21T02:44:54;8.20;;;5.95;;
71869;SDS011;59739;47.696;11.746;2023-05-21T02:47:21;11.00;;;6.70;;
71869;SDS011;59739;47.696;11.746;2023-05-21T02:49:48;6.90;;;5.68;;
71869;SDS011;59739;47.696;11.746;2023-05-21T02:52:16;8.00;;;5.80;;
71869;SDS011;59739;47.696;11.746;2023-05-21T02:54:43;8.55;;;5.63;;
71869;SDS011;59739;47.696;11.746;2023-05-21T02:57:11;9.60;;;5.97;;
71869;SDS011;59739;47.696;11.746;2023-05-21T02:59:37;8.82;;;5.90;;
71869;SDS011;59739;47.696;11.746;2023-05-21T03:02:03;9.90;;;5.97;;
71869;SDS011;59739;47.696;11.746;2023-05-21T03:04:29;16.02;;;6.28;;
71869;SDS011;59739;47.696;11.746;2023-05-21T03:06:57;7.45;;;5.75;;
71869;SDS011;59739;47.696;11.746;2023-05-21T03:09:26;7.85;;;5.70;;
71869;SDS011;59739;47.696;11.746;2023-05-21T03:11:55;12.30;;;5.80;;
71869;SDS011;59739;47.696;11.746;2023-05-21T03:14:21;7.50;;;5.68;;
71869;SDS011;59739;47.696;11.746;2023-05-21T03:16:48;9.60;;;6.45;;
71869;SDS011;59739;47.696;11.746;2023-05-21T03:19:16;8.82;;;6.50;;
71869;SDS011;59739;47.696;11.746;2023-05-21T03:21:42;7.90;;;5.50;;
71869;SDS011;59739;47.696;11.746;2023-05-21T03:24:08;8.88;;;5.75;;
71869;SDS011;59739;47.696;11.746;2023-05-21T03:26:37;8.13;;;6.15;;
71869;SDS011;59739;47.696;11.746;2023-05-21T03:29:03;8.98;;;6.28;;
71869;SDS011;59739;47.696;11.746;2023-05-21T03:31:30;7.55;;;5.60;;
71869;SDS011;59739;47.696;11.746;2023-05-21T03:36:49;8.93;;;6.68;;
71869;SDS011;59739;47.696;11.746;2023-05-21T03:39:16;9.68;;;6.13;;
71869;SDS011;59739;47.696;11.746;2023-05-21T03:41:43;9.90;;;6.25;;
71869;SDS011;59739;47.696;11.746;2023-05-21T03:44:17;9.10;;;6.40;;
71869;SDS011;59739;47.696;11.746;2023-05-21T03:46:54;8.15;;;5.60;;
71869;SDS011;59739;47.696;11.746;2023-05-21T03:49:29;7.90;;;5.82;;
71869;SDS011;59739;47.696;11.746;2023-05-21T03:51:56;8.48;;;6.10;;
71869;SDS011;59739;47.696;11.746;2023-05-21T03:54:22;8.07;;;5.63;;
71869;SDS011;59739;47.696;11.746;2023-05-21T03:56:52;9.00;;;6.47;;
71869;SDS011;59739;47.696;11.746;2023-05-21T03:59:18;8.25;;;6.40;;
71869;SDS011;59739;47.696;11.746;2023-05-21T04:01:44;7.95;;;5.95;;
71869;SDS011;59739;47.696;11.746;2023-05-21T04:04:13;10.00;;;6.18;;
71869;SDS011;59739;47.696;11.746;2023-05-21T04:06:40;8.40;;;6.40;;
71869;SDS011;59739;47.696;11.746;2023-05-21T04:09:07;8.10;;;6.05;;
71869;SDS011;59739;47.696;11.746;2023-05-21T04:11:34;10.23;;;6.40;;
71869;SDS011;59739;47.696;11.746;2023-05-21T04:14:01;7.75;;;6.35;;
71869;SDS011;59739;47.696;11.746;2023-05-21T04:16:28;7.38;;;5.97;;
71869;SDS011;59739;47.696;11.746;2023-05-21T04:18:54;8.20;;;5.72;;
71869;SDS011;59739;47.696;11.746;2023-05-21T04:21:21;7.18;;;5.95;;
71869;SDS011;59739;47.696;11.746;2023-05-21T04:23:47;10.50;;;6.55;;
71869;SDS011;59739;47.696;11.746;2023-05-21T04:26:26;7.88;;;6.38;;
71869;SDS011;59739;47.696;11.746;2023-05-21T04:28:53;7.05;;;5.97;;
71869;SDS011;59739;47.696;11.746;2023-05-21T04:31:20;7.15;;;6.10;;
71869;SDS011;59739;47.696;11.746;2023-05-21T04:33:48;7.93;;;6.00;;
71869;SDS011;59739;47.696;11.746;2023-05-21T04:36:18;7.68;;;6.10;;
71869;SDS011;59739;47.696;11.746;2023-05-21T04:38:44;7.63;;;6.45;;
71869;SDS011;59739;47.696;11.746;2023-05-21T04:41:10;8.73;;;6.10;;
71869;SDS011;59739;47.696;11.746;2023-05-21T04:43:38;7.35;;;6.20;;
71869;SDS011;59739;47.696;11.746;2023-05-21T04:46:08;7.60;;;6.18;;
71869;SDS011;59739;47.696;11.746;2023-05-21T04:48:34;7.82;;;6.28;;
71869;SDS011;59739;47.696;11.746;2023-05-21T04:51:00;9.55;;;6.50;;
71869;SDS011;59739;47.696;11.746;2023-05-21T04:53:30;6.80;;;6.10;;
71869;SDS011;59739;47.696;11.746;2023-05-21T04:55:57;11.82;;;6.55;;
71869;SDS011;59739;47.696;11.746;2023-05-21T04:58:24;7.38;;;5.80;;
71869;SDS011;59739;47.696;11.746;2023-05-21T05:00:50;7.90;;;6.30;;
71869;SDS011;59739;47.696;11.746;2023-05-21T05:03:18;7.30;;;6.45;;
71869;SDS011;59739;47.696;11.746;2023-05-21T05:05:45;8.70;;;6.60;;
71869;SDS011;59739;47.696;11.746;2023-05-21T05:08:11;9.23;;;6.15;;
71869;SDS011;59739;47.696;11.746;2023-05-21T05:10:37;8.52;;;6.80;;
71869;SDS011;59739;47.696;11.746;2023-05-21T05:13:03;8.65;;;6.22;;
71869;SDS011;59739;47.696;11.746;2023-05-21T05:15:30;8.20;;;6.22;;
71869;SDS011;59739;47.696;11.746;2023-05-21T05:17:56;9.10;;;6.30;;
71869;SDS011;59739;47.696;11.746;2023-05-21T05:20:22;8.35;;;6.47;;
71869;SDS011;59739;47.696;11.746;2023-05-21T05:22:49;9.27;;;5.97;;
71869;SDS011;59739;47.696;11.746;2023-05-21T05:25:15;7.85;;;6.05;;
71869;SDS011;59739;47.696;11.746;2023-05-21T05:27:41;7.80;;;6.45;;
71869;SDS011;59739;47.696;11.746;2023-05-21T05:30:08;7.72;;;6.20;;
71869;SDS011;59739;47.696;11.746;2023-05-21T05:32:34;7.30;;;6.22;;
71869;SDS011;59739;47.696;11.746;2023-05-21T05:35:01;7.28;;;6.05;;
71869;SDS011;59739;47.696;11.746;2023-05-21T05:37:27;8.85;;;6.15;;
71869;SDS011;59739;47.696;11.746;2023-05-21T05:39:53;9.45;;;6.47;;
71869;SDS011;59739;47.696;11.746;2023-05-21T05:42:20;6.90;;;6.13;;
71869;SDS011;59739;47.696;11.746;2023-05-21T05:44:46;7.95;;;6.05;;
71869;SDS011;59739;47.696;11.746;2023-05-21T05:47:12;7.38;;;6.22;;
71869;SDS011;59739;47.696;11.746;2023-05-21T05:49:38;7.88;;;6.20;;
71869;SDS011;59739;47.696;11.746;2023-05-21T05:52:05;7.68;;;5.85;;
71869;SDS011;59739;47.696;11.746;2023-05-21T05:54:31;8.32;;;6.38;;
71869;SDS011;59739;47.696;11.746;2023-05-21T05:57:00;7.32;;;6.10;;
71869;SDS011;59739;47.696;11.746;2023-05-21T05:59:27;6.93;;;6.18;;
71869;SDS011;59739;47.696;11.746;2023-05-21T06:01:57;7.97;;;5.55;;
71869;SDS011;59739;47.696;11.746;2023-05-21T06:04:26;7.68;;;6.60;;
71869;SDS011;59739;47.696;11.746;2023-05-21T06:06:57;8.80;;;6.00;;
71869;SDS011;59739;47.696;11.746;2023-05-21T06:09:24;6.88;;;6.18;;
71869;SDS011;59739;47.696;11.746;2023-05-21T06:11:50;8.70;;;6.57;;
71869;SDS011;59739;47.696;11.746;2023-05-21T06:14:16;8.07;;;6.45;;
71869;SDS011;59739;47.696;11.746;2023-05-21T06:16:42;9.23;;;7.25;;
71869;SDS011;59739;47.696;11.746;2023-05-21T06:19:08;7.13;;;6.15;;
71869;SDS011;59739;47.696;11.746;2023-05-21T06:21:34;8.70;;;6.10;;
71869;SDS011;59739;47.696;11.746;2023-05-21T06:24:02;7.50;;;6.30;;
71869;SDS011;59739;47.696;11.746;2023-05-21T06:26:29;8.55;;;6.57;;
71869;SDS011;59739;47.696;11.746;2023-05-21T06:28:56;8.00;;;6.60;;
71869;SDS011;59739;47.696;11.746;2023-05-21T06:31:22;9.25;;;6.40;;
71869;SDS011;59739;47.696;11.746;2023-05-21T06:33:48;9.38;;;6.55;;
71869;SDS011;59739;47.696;11.746;2023-05-21T06:36:14;8.75;;;6.45;;
71869;SDS011;59739;47.696;11.746;2023-05-21T06:38:44;6.60;;;5.88;;
71869;SDS011;59739;47.696;11.746;2023-05-21T06:41:10;7.57;;;6.25;;
71869;SDS011;59739;47.696;11.746;2023-05-21T06:43:46;9.32;;;5.90;;
71869;SDS011;59739;47.696;11.746;2023-05-21T06:46:35;7.85;;;6.20;;
71869;SDS011;59739;47.696;11.746;2023-05-21T06:49:04;7.82;;;6.50;;
71869;SDS011;59739;47.696;11.746;2023-05-21T06:51:33;9.23;;;6.63;;
71869;SDS011;59739;47.696;11.746;2023-05-21T06:54:01;10.18;;;6.28;;
71869;SDS011;59739;47.696;11.746;2023-05-21T06:56:27;8.35;;;6.65;;
71869;SDS011;59739;47.696;11.746;2023-05-21T06:58:53;7.00;;;6.20;;
71869;SDS011;59739;47.696;11.746;2023-05-21T07:01:20;8.15;;;6.43;;
71869;SDS011;59739;47.696;11.746;2023-05-21T07:03:47;7.43;;;6.18;;
71869;SDS011;59739;47.696;11.746;2023-05-21T07:06:13;8.23;;;6.57;;
71869;SDS011;59739;47.696;11.746;2023-05-21T07:08:40;8.68;;;6.13;;
71869;SDS011;59739;47.696;11.746;2023-05-21T07:11:09;6.50;;;5.57;;
71869;SDS011;59739;47.696;11.746;2023-05-21T07:13:35;7.13;;;5.60;;
71869;SDS011;59739;47.696;11.746;2023-05-21T07:16:01;7.25;;;5.85;;
71869;SDS011;59739;47.696;11.746;2023-05-21T07:18:31;7.82;;;5.93;;
71869;SDS011;59739;47.696;11.746;2023-05-21T07:20:57;7.32;;;5.40;;
71869;SDS011;59739;47.696;11.746;2023-05-21T07:23:24;9.48;;;6.43;;
71869;SDS011;59739;47.696;11.746;2023-05-21T07:25:50;8.48;;;6.30;;
71869;SDS011;59739;47.696;11.746;2023-05-21T07:28:17;7.82;;;6.50;;
71869;SDS011;59739;47.696;11.746;2023-05-21T07:30:44;9.40;;;5.95;;
71869;SDS011;59739;47.696;11.746;2023-05-21T07:33:14;8.73;;;6.07;;
71869;SDS011;59739;47.696;11.746;2023-05-21T07:35:41;7.85;;;5.93;;
71869;SDS011;59739;47.696;11.746;2023-05-21T07:38:07;10.20;;;6.07;;
71869;SDS011;59739;47.696;11.746;2023-05-21T07:40:33;6.95;;;6.20;;
71869;SDS011;59739;47.696;11.746;2023-05-21T07:43:00;8.38;;;6.05;;
71869;SDS011;59739;47.696;11.746;2023-05-21T07:45:28;8.13;;;5.90;;
71869;SDS011;59739;47.696;11.746;2023-05-21T07:47:54;6.60;;;5.88;;
71869;SDS011;59739;47.696;11.746;2023-05-21T07:50:21;8.07;;;5.75;;
71869;SDS011;59739;47.696;11.746;2023-05-21T07:52:47;6.70;;;5.93;;
71869;SDS011;59739;47.696;11.746;2023-05-21T07:55:14;8.23;;;6.22;;
71869;SDS011;59739;47.696;11.746;2023-05-21T07:57:41;7.32;;;5.75;;
71869;SDS011;59739;47.696;11.746;2023-05-21T08:00:11;6.55;;;5.75;;
71869;SDS011;59739;47.696;11.746;2023-05-21T08:02:40;7.32;;;5.95;;
71869;SDS011;59739;47.696;11.746;2023-05-21T08:05:06;8.00;;;5.93;;
71869;SDS011;59739;47.696;11.746;2023-05-21T08:07:34;6.88;;;6.18;;
71869;SDS011;59739;47.696;11.746;2023-05-21T08:10:01;7.40;;;6.45;;
71869;SDS011;59739;47.696;11.746;2023-05-21T08:12:27;7.63;;;6.07;;
71869;SDS011;59739;47.696;11.746;2023-05-21T08:14:53;7.18;;;5.60;;
71869;SDS011;59739;47.696;11.746;2023-05-21T08:17:21;6.90;;;5.95;;
71869;SDS011;59739;47.696;11.746;2023-05-21T08:19:47;7.82;;;6.43;;
71869;SDS011;59739;47.696;11.746;2023-05-21T08:22:13;6.72;;;5.68;;
71869;SDS011;59739;47.696;11.746;2023-05-21T08:24:44;7.00;;;5.70;;
71869;SDS011;59739;47.696;11.746;2023-05-21T08:27:10;8.35;;;6.05;;
71869;SDS011;59739;47.696;11.746;2023-05-21T08:29:37;7.70;;;6.13;;
71869;SDS011;59739;47.696;11.746;2023-05-21T08:32:04;9.38;;;5.80;;
71869;SDS011;59739;47.696;11.746;2023-05-21T08:34:30;7.47;;;6.22;;
71869;SDS011;59739;47.696;11.746;2023-05-21T08:37:17;7.25;;;6.03;;
71869;SDS011;59739;47.696;11.746;2023-05-21T08:40:05;7.28;;;6.10;;
71869;SDS011;59739;47.696;11.746;2023-05-21T08:45:22;7.43;;;5.97;;
71869;SDS011;59739;47.696;11.746;2023-05-21T08:47:57;7.70;;;6.43;;
71869;SDS011;59739;47.696;11.746;2023-05-21T08:50:27;6.20;;;5.60;;
71869;SDS011;59739;47.696;11.746;2023-05-21T08:52:58;6.32;;;5.57;;
71869;SDS011;59739;47.696;11.746;2023-05-21T08:55:25;6.00;;;5.40;;
71869;SDS011;59739;47.696;11.746;2023-05-21T08:57:53;8.40;;;5.75;;
71869;SDS011;59739;47.696;11.746;2023-05-21T09:00:21;6.28;;;5.68;;
71869;SDS011;59739;47.696;11.746;2023-05-21T09:02:49;6.75;;;5.72;;
71869;SDS011;59739;47.696;11.746;2023-05-21T09:05:19;7.45;;;5.63;;
71869;SDS011;59739;47.696;11.746;2023-05-21T09:07:49;6.15;;;5.55;;
71869;SDS011;59739;47.696;11.746;2023-05-21T09:10:38;6.82;;;5.40;;
71869;SDS011;59739;47.696;11.746;2023-05-21T09:13:06;7.47;;;5.85;;
71869;SDS011;59739;47.696;11.746;2023-05-21T09:15:34;8.18;;;5.82;;
71869;SDS011;59739;47.696;11.746;2023-05-21T09:18:01;6.68;;;5.75;;
71869;SDS011;59739;47.696;11.746;2023-05-21T09:20:43;6.10;;;5.50;;
71869;SDS011;59739;47.696;11.746;2023-05-21T09:23:09;6.80;;;5.40;;
71869;SDS011;59739;47.696;11.746;2023-05-21T09:25:40;7.03;;;5.55;;
71869;SDS011;59739;47.696;11.746;2023-05-21T09:28:23;7.90;;;5.60;;
71869;SDS011;59739;47.696;11.746;2023-05-21T09:30:52;5.88;;;5.28;;
71869;SDS011;59739;47.696;11.746;2023-05-21T09:33:26;6.30;;;5.38;;
71869;SDS011;59739;47.696;11.746;2023-05-21T09:35:56;5.70;;;5.20;;
71869;SDS011;59739;47.696;11.746;2023-05-21T09:38:23;5.90;;;5.22;;
71869;SDS011;59739;47.696;11.746;2023-05-21T09:40:52;6.22;;;5.63;;
71869;SDS011;59739;47.696;11.746;2023-05-21T09:43:21;7.65;;;5.32;;
71869;SDS011;59739;47.696;11.746;2023-05-21T09:45:51;6.18;;;5.25;;
71869;SDS011;59739;47.696;11.746;2023-05-21T09:48:37;6.00;;;5.40;;
71869;SDS011;59739;47.696;11.746;2023-05-21T09:51:16;7.38;;;5.00;;
71869;SDS011;59739;47.696;11.746;2023-05-21T09:53:48;6.30;;;5.65;;
71869;SDS011;59739;47.696;11.746;2023-05-21T09:56:24;6.50;;;5.43;;
71869;SDS011;59739;47.696;11.746;2023-05-21T09:58:55;6.20;;;5.53;;
71869;SDS011;59739;47.696;11.746;2023-05-21T10:01:24;6.68;;;5.53;;
71869;SDS011;59739;47.696;11.746;2023-05-21T10:03:55;6.20;;;4.68;;
71869;SDS011;59739;47.696;11.746;2023-05-21T10:06:26;5.70;;;5.10;;
71869;SDS011;59739;47.696;11.746;2023-05-21T10:08:55;6.00;;;5.03;;
71869;SDS011;59739;47.696;11.746;2023-05-21T10:11:24;7.20;;;5.03;;
71869;SDS011;59739;47.696;11.746;2023-05-21T10:13:56;7.43;;;5.30;;
71869;SDS011;59739;47.696;11.746;2023-05-21T10:16:29;6.35;;;5.53;;
71869;SDS011;59739;47.696;11.746;2023-05-21T10:18:58;6.68;;;5.30;;
71869;SDS011;59739;47.696;11.746;2023-05-21T10:21:25;5.43;;;4.93;;
71869;SDS011;59739;47.696;11.746;2023-05-21T10:23:52;5.93;;;4.93;;
71869;SDS011;59739;47.696;11.746;2023-05-21T10:26:22;6.15;;;5.65;;
71869;SDS011;59739;47.696;11.746;2023-05-21T10:28:52;6.13;;;5.25;;
71869;SDS011;59739;47.696;11.746;2023-05-21T10:31:21;7.65;;;5.45;;
71869;SDS011;59739;47.696;11.746;2023-05-21T10:33:59;7.85;;;5.45;;
71869;SDS011;59739;47.696;11.746;2023-05-21T10:36:29;5.60;;;4.95;;
71869;SDS011;59739;47.696;11.746;2023-05-21T10:38:59;5.90;;;5.35;;
71869;SDS011;59739;47.696;11.746;2023-05-21T10:41:25;7.05;;;5.53;;
71869;SDS011;59739;47.696;11.746;2023-05-21T10:44:46;8.90;;;5.70;;
71869;SDS011;59739;47.696;11.746;2023-05-21T11:02:08;6.18;;;5.18;;
71869;SDS011;59739;47.696;11.746;2023-05-21T11:04:40;5.47;;;4.80;;
71869;SDS011;59739;47.696;11.746;2023-05-21T11:07:09;6.38;;;5.20;;
71869;SDS011;59739;47.696;11.746;2023-05-21T11:09:37;6.68;;;5.20;;
71869;SDS011;59739;47.696;11.746;2023-05-21T11:12:03;6.60;;;4.93;;
71869;SDS011;59739;47.696;11.746;2023-05-21T11:14:32;5.20;;;4.70;;
71869;SDS011;59739;47.696;11.746;2023-05-21T11:17:01;6.78;;;4.60;;
71869;SDS011;59739;47.696;11.746;2023-05-21T11:22:06;7.97;;;5.07;;
71869;SDS011;59739;47.696;11.746;2023-05-21T11:24:37;5.88;;;4.68;;
71869;SDS011;59739;47.696;11.746;2023-05-21T11:29:43;6.35;;;4.93;;
71869;SDS011;59739;47.696;11.746;2023-05-21T11:32:11;5.68;;;5.10;;
71869;SDS011;59739;47.696;11.746;2023-05-21T11:39:48;6.75;;;4.72;;
71869;SDS011;59739;47.696;11.746;2023-05-21T11:43:01;5.60;;;5.00;;
71869;SDS011;59739;47.696;11.746;2023-05-21T11:45:06;7.35;;;4.95;;
71869;SDS011;59739;47.696;11.746;2023-05-21T11:47:33;5.20;;;4.70;;
71869;SDS011;59739;47.696;11.746;2023-05-21T11:50:00;8.48;;;5.03;;
71869;SDS011;59739;47.696;11.746;2023-05-21T11:52:37;5.40;;;4.90;;
71869;SDS011;59739;47.696;11.746;2023-05-21T11:55:04;5.65;;;4.50;;
71869;SDS011;59739;47.696;11.746;2023-05-21T11:57:31;5.53;;;4.55;;
71869;SDS011;59739;47.696;11.746;2023-05-21T12:00:00;5.18;;;3.85;;
71869;SDS011;59739;47.696;11.746;2023-05-21T12:02:38;5.63;;;4.72;;
71869;SDS011;59739;47.696;11.746;2023-05-21T12:05:15;6.43;;;4.78;;
71869;SDS011;59739;47.696;11.746;2023-05-21T12:07:41;6.05;;;4.35;;
71869;SDS011;59739;47.696;11.746;2023-05-21T12:10:10;6.07;;;4.75;;
71869;SDS011;59739;47.696;11.746;2023-05-21T12:12:37;5.32;;;4.03;;
71869;SDS011;59739;47.696;11.746;2023-05-21T12:15:03;4.95;;;4.13;;
71869;SDS011;59739;47.696;11.746;2023-05-21T12:17:31;4.88;;;4.38;;
71869;SDS011;59739;47.696;11.746;2023-05-21T12:19:57;7.07;;;4.85;;
71869;SDS011;59739;47.696;11.746;2023-05-21T12:22:29;4.78;;;4.30;;
71869;SDS011;59739;47.696;11.746;2023-05-21T12:24:58;6.13;;;4.85;;
71869;SDS011;59739;47.696;11.746;2023-05-21T12:27:28;4.78;;;4.00;;
71869;SDS011;59739;47.696;11.746;2023-05-21T12:29:54;5.07;;;4.57;;
71869;SDS011;59739;47.696;11.746;2023-05-21T12:32:21;4.65;;;4.25;;
71869;SDS011;59739;47.696;11.746;2023-05-21T12:34:54;4.93;;;4.30;;
71869;SDS011;59739;47.696;11.746;2023-05-21T12:37:22;5.63;;;4.18;;
71869;SDS011;59739;47.696;11.746;2023-05-21T12:39:57;7.95;;;4.00;;
71869;SDS011;59739;47.696;11.746;2023-05-21T12:42:25;4.90;;;4.13;;
71869;SDS011;59739;47.696;11.746;2023-05-21T12:44:56;4.80;;;4.07;;
71869;SDS011;59739;47.696;11.746;2023-05-21T12:47:22;5.53;;;4.35;;
71869;SDS011;59739;47.696;11.746;2023-05-21T12:49:55;5.00;;;4.50;;
71869;SDS011;59739;47.696;11.746;2023-05-21T12:52:24;5.20;;;4.10;;
71869;SDS011;59739;47.696;11.746;2023-05-21T12:54:54;5.32;;;4.53;;
71869;SDS011;59739;47.696;11.746;2023-05-21T12:57:21;6.00;;;4.28;;
71869;SDS011;59739;47.696;11.746;2023-05-21T13:02:26;4.97;;;4.32;;
71869;SDS011;59739;47.696;11.746;2023-05-21T13:05:06;5.28;;;4.30;;
71869;SDS011;59739;47.696;11.746;2023-05-21T13:07:41;6.00;;;4.13;;
71869;SDS011;59739;47.696;11.746;2023-05-21T13:10:08;4.50;;;4.10;;
71869;SDS011;59739;47.696;11.746;2023-05-21T13:12:36;4.60;;;4.10;;
71869;SDS011;59739;47.696;11.746;2023-05-21T13:15:05;4.80;;;3.70;;
71869;SDS011;59739;47.696;11.746;2023-05-21T13:17:32;4.82;;;3.83;;
71869;SDS011;59739;47.696;11.746;2023-05-21T13:20:11;4.65;;;4.15;;
71869;SDS011;59739;47.696;11.746;2023-05-21T13:22:49;5.55;;;4.00;;
71869;SDS011;59739;47.696;11.746;2023-05-21T13:25:17;4.45;;;3.60;;
71869;SDS011;59739;47.696;11.746;2023-05-21T13:27:45;5.25;;;3.92;;
71869;SDS011;59739;47.696;11.746;2023-05-21T13:30:13;5.05;;;4.13;;
71869;SDS011;59739;47.696;11.746;2023-05-21T13:32:40;4.82;;;4.05;;
71869;SDS011;59739;47.696;11.746;2023-05-21T13:35:07;4.43;;;4.00;;
71869;SDS011;59739;47.696;11.746;2023-05-21T13:37:34;4.88;;;4.00;;
71869;SDS011;59739;47.696;11.746;2023-05-21T13:40:02;4.97;;;3.65;;
71869;SDS011;59739;47.696;11.746;2023-05-21T13:42:30;6.68;;;5.00;;
71869;SDS011;59739;47.696;11.746;2023-05-21T13:44:56;5.50;;;4.72;;
71869;SDS011;59739;47.696;11.746;2023-05-21T13:47:22;5.57;;;4.97;;
71869;SDS011;59739;47.696;11.746;2023-05-21T13:49:50;5.65;;;4.80;;
71869;SDS011;59739;47.696;11.746;2023-05-21T13:52:16;4.80;;;4.40;;
71869;SDS011;59739;47.696;11.746;2023-05-21T13:54:44;6.07;;;5.10;;
71869;SDS011;59739;47.696;11.746;2023-05-21T13:57:13;5.00;;;4.47;;
71869;SDS011;59739;47.696;11.746;2023-05-21T13:59:39;5.90;;;4.90;;
71869;SDS011;59739;47.696;11.746;2023-05-21T14:02:06;5.20;;;4.70;;
71869;SDS011;59739;47.696;11.746;2023-05-21T14:04:34;5.72;;;4.80;;
71869;SDS011;59739;47.696;11.746;2023-05-21T14:07:00;5.10;;;4.60;;
71869;SDS011;59739;47.696;11.746;2023-05-21T14:09:27;5.72;;;5.03;;
71869;SDS011;59739;47.696;11.746;2023-05-21T14:11:54;6.75;;;5.40;;
71869;SDS011;59739;47.696;11.746;2023-05-21T14:14:21;4.60;;;4.13;;
71869;SDS011;59739;47.696;11.746;2023-05-21T14:16:48;5.00;;;4.45;;
71869;SDS011;59739;47.696;11.746;2023-05-21T14:19:15;5.25;;;4.75;;
71869;SDS011;59739;47.696;11.746;2023-05-21T14:21:41;4.85;;;4.30;;
71869;SDS011;59739;47.696;11.746;2023-05-21T14:24:07;5.07;;;4.57;;
71869;SDS011;59739;47.696;11.746;2023-05-21T14:26:35;5.63;;;4.90;;
71869;SDS011;59739;47.696;11.746;2023-05-21T14:29:10;5.65;;;4.70;;
71869;SDS011;59739;47.696;11.746;2023-05-21T14:31:36;5.80;;;4.22;;
71869;SDS011;59739;47.696;11.746;2023-05-21T14:34:02;5.10;;;4.38;;
71869;SDS011;59739;47.696;11.746;2023-05-21T14:36:30;5.55;;;4.82;;
71869;SDS011;59739;47.696;11.746;2023-05-21T14:38:57;5.20;;;4.38;;
71869;SDS011;59739;47.696;11.746;2023-05-21T14:41:23;5.78;;;4.53;;
71869;SDS011;59739;47.696;11.746;2023-05-21T14:43:53;4.88;;;4.38;;
71869;SDS011;59739;47.696;11.746;2023-05-21T14:46:19;5.13;;;4.63;;
71869;SDS011;59739;47.696;11.746;2023-05-21T14:48:45;4.45;;;4.05;;
71869;SDS011;59739;47.696;11.746;2023-05-21T14:51:12;5.65;;;4.28;;
71869;SDS011;59739;47.696;11.746;2023-05-21T14:53:38;6.63;;;4.53;;
71869;SDS011;59739;47.696;11.746;2023-05-21T14:56:05;4.78;;;4.18;;
71869;SDS011;59739;47.696;11.746;2023-05-21T14:58:32;4.78;;;4.38;;
71869;SDS011;59739;47.696;11.746;2023-05-21T15:00:58;5.57;;;4.65;;
71869;SDS011;59739;47.696;11.746;2023-05-21T15:03:25;5.57;;;4.40;;
71869;SDS011;59739;47.696;11.746;2023-05-21T15:05:51;5.35;;;3.97;;
71869;SDS011;59739;47.696;11.746;2023-05-21T15:08:18;5.47;;;4.97;;
71869;SDS011;59739;47.696;11.746;2023-05-21T15:10:44;6.43;;;4.82;;
71869;SDS011;59739;47.696;11.746;2023-05-21T15:13:10;7.40;;;5.10;;
71869;SDS011;59739;47.696;11.746;2023-05-21T15:15:36;8.35;;;5.32;;
71869;SDS011;59739;47.696;11.746;2023-05-21T15:18:02;5.85;;;4.90;;
71869;SDS011;59739;47.696;11.746;2023-05-21T15:20:28;5.40;;;4.35;;